sensor_id;sensor_type;location;lat;lon;timestamp;pressure;altitude;pressure_sealevel;temperature;humidity
17607;BME280;69222;52.242;20.980;2023-05-02T00:02:08;100308.38;;;12.00;42.32
17607;BME280;69222;52.242;20.980;2023-05-02T00:04:36;100300.66;;;11.96;41.99
17607;BME280;69222;52.242;20.980;2023-05-02T00:07:04;100303.28;;;11.93;42.55
17607;BME280;69222;52.242;20.980;2023-05-02T00:09:32;100307.63;;;11.91;42.09
17607;BME280;69222;52.242;20.980;2023-05-02T00:12:00;100302.50;;;11.88;42.33
17607;BME280;69222;52.242;20.980;2023-05-02T00:14:29;100296.53;;;11.84;42.44
17607;BME280;69222;52.242;20.980;2023-05-02T00:16:57;100303.34;;;11.88;42.51
17607;BME280;69222;52.242;20.980;2023-05-02T00:19:26;100292.13;;;11.89;42.29
17607;BME280;69222;52.242;20.980;2023-05-02T00:21:54;100292.97;;;11.91;42.60
17607;BME280;69222;52.242;20.980;2023-05-02T00:24:22;100290.41;;;11.91;42.59
17607;BME280;69222;52.242;20.980;2023-05-02T00:26:50;100288.66;;;11.93;42.16
17607;BME280;69222;52.242;20.980;2023-05-02T00:29:18;100285.19;;;11.94;42.34
17607;BME280;69222;52.242;20.980;2023-05-02T00:31:46;100285.22;;;11.93;42.27
17607;BME280;69222;52.242;20.980;2023-05-02T00:34:14;100282.63;;;11.94;41.98
17607;BME280;69222;52.242;20.980;2023-05-02T00:36:44;100283.44;;;11.96;42.68
17607;BME280;69222;52.242;20.980;2023-05-02T00:39:12;100275.66;;;11.99;42.08
17607;BME280;69222;52.242;20.980;2023-05-02T00:41:40;100277.38;;;12.00;42.00
17607;BME280;69222;52.242;20.980;2023-05-02T00:44:08;100275.66;;;11.99;42.00
17607;BME280;69222;52.242;20.980;2023-05-02T00:46:36;100273.97;;;11.98;42.09
17607;BME280;69222;52.242;20.980;2023-05-02T00:49:04;100267.09;;;11.97;42.03
17607;BME280;69222;52.242;20.980;2023-05-02T00:51:32;100265.34;;;11.98;41.79
17607;BME280;69222;52.242;20.980;2023-05-02T00:54:02;100268.81;;;11.95;41.71
17607;BME280;69222;52.242;20.980;2023-05-02T00:56:30;100272.25;;;11.96;42.04
17607;BME280;69222;52.242;20.980;2023-05-02T00:58:59;100267.06;;;11.99;42.30
17607;BME280;69222;52.242;20.980;2023-05-02T01:01:35;100255.03;;;11.98;42.13
17607;BME280;69222;52.242;20.980;2023-05-02T01:04:17;100258.38;;;12.03;42.08
17607;BME280;69222;52.242;20.980;2023-05-02T01:10:45;100259.31;;;12.00;41.60
17607;BME280;69222;52.242;20.980;2023-05-02T01:13:21;100250.69;;;12.00;41.66
17607;BME280;69222;52.242;20.980;2023-05-02T01:15:50;100260.16;;;11.99;41.99
17607;BME280;69222;52.242;20.980;2023-05-02T01:18:22;100239.50;;;11.99;41.48
17607;BME280;69222;52.242;20.980;2023-05-02T01:21:05;100250.69;;;12.01;41.70
17607;BME280;69222;52.242;20.980;2023-05-02T01:23:40;100257.63;;;11.98;41.88
17607;BME280;69222;52.242;20.980;2023-05-02T01:26:24;100246.44;;;11.97;41.77
17607;BME280;69222;52.242;20.980;2023-05-02T01:28:58;100244.69;;;11.96;41.63
17607;BME280;69222;52.242;20.980;2023-05-02T01:31:28;100255.91;;;11.97;41.67
17607;BME280;69222;52.242;20.980;2023-05-02T01:34:00;100249.06;;;11.93;42.21
17607;BME280;69222;52.242;20.980;2023-05-02T01:36:30;100247.38;;;11.89;42.16
17607;BME280;69222;52.242;20.980;2023-05-02T01:39:00;100247.47;;;11.84;42.12
17607;BME280;69222;52.242;20.980;2023-05-02T01:41:30;100248.31;;;11.83;42.36
17607;BME280;69222;52.242;20.980;2023-05-02T01:44:01;100242.31;;;11.84;42.50
17607;BME280;69222;52.242;20.980;2023-05-02T01:46:33;100225.06;;;11.83;42.32
17607;BME280;69222;52.242;20.980;2023-05-02T01:49:05;100226.00;;;11.79;42.49
17607;BME280;69222;52.242;20.980;2023-05-02T01:51:43;100226.88;;;11.76;42.15
17607;BME280;69222;52.242;20.980;2023-05-02T01:54:14;100220.03;;;11.74;42.66
17607;BME280;69222;52.242;20.980;2023-05-02T01:56:43;100206.38;;;11.66;42.27
17607;BME280;69222;52.242;20.980;2023-05-02T01:59:16;100213.22;;;11.68;42.47
17607;BME280;69222;52.242;20.980;2023-05-02T02:01:45;100217.47;;;11.72;42.40
17607;BME280;69222;52.242;20.980;2023-05-02T02:04:15;100220.03;;;11.75;42.76
17607;BME280;69222;52.242;20.980;2023-05-02T02:06:47;100214.81;;;11.77;42.27
17607;BME280;69222;52.242;20.980;2023-05-02T02:09:18;100200.25;;;11.73;42.28
17607;BME280;69222;52.242;20.980;2023-05-02T02:11:51;100192.56;;;11.70;42.86
17607;BME280;69222;52.242;20.980;2023-05-02T02:14:25;100200.22;;;11.76;42.77
17607;BME280;69222;52.242;20.980;2023-05-02T02:16:55;100205.34;;;11.79;42.39
17607;BME280;69222;52.242;20.980;2023-05-02T02:19:28;100201.13;;;11.72;42.49
17607;BME280;69222;52.242;20.980;2023-05-02T02:21:57;100187.50;;;11.64;42.67
17607;BME280;69222;52.242;20.980;2023-05-02T02:24:27;100185.81;;;11.59;43.10
17607;BME280;69222;52.242;20.980;2023-05-02T02:26:57;100184.84;;;11.67;42.36
17607;BME280;69222;52.242;20.980;2023-05-02T02:29:27;100178.06;;;11.59;42.83
17607;BME280;69222;52.242;20.980;2023-05-02T02:31:58;100185.72;;;11.66;42.88
17607;BME280;69222;52.242;20.980;2023-05-02T02:34:26;100187.44;;;11.67;42.98
17607;BME280;69222;52.242;20.980;2023-05-02T02:37:00;100189.16;;;11.66;43.03
17607;BME280;69222;52.242;20.980;2023-05-02T02:39:40;100200.28;;;11.70;42.69
17607;BME280;69222;52.242;20.980;2023-05-02T02:42:21;100146.53;;;11.37;43.00
17607;BME280;69222;52.242;20.980;2023-05-02T02:45:03;100194.25;;;11.72;43.14
17607;BME280;69222;52.242;20.980;2023-05-02T02:47:41;100213.13;;;11.74;43.22
17607;BME280;69222;52.242;20.980;2023-05-02T02:50:16;100189.94;;;11.73;43.35
17607;BME280;69222;52.242;20.980;2023-05-02T02:52:52;100198.56;;;11.72;43.23
17607;BME280;69222;52.242;20.980;2023-05-02T02:55:33;100190.84;;;11.69;43.42
17607;BME280;69222;52.242;20.980;2023-05-02T02:58:16;100188.31;;;11.66;43.60
17607;BME280;69222;52.242;20.980;2023-05-02T03:00:50;100184.91;;;11.64;43.46
17607;BME280;69222;52.242;20.980;2023-05-02T03:03:23;100181.41;;;11.66;43.78
17607;BME280;69222;52.242;20.980;2023-05-02T03:05:56;100186.63;;;11.65;43.84
17607;BME280;69222;52.242;20.980;2023-05-02T03:08:24;100183.19;;;11.64;43.73
17607;BME280;69222;52.242;20.980;2023-05-02T03:10:53;100185.78;;;11.61;43.57
17607;BME280;69222;52.242;20.980;2023-05-02T03:13:21;100187.53;;;11.60;43.98
17607;BME280;69222;52.242;20.980;2023-05-02T03:16:11;100191.03;;;11.55;43.91
17607;BME280;69222;52.242;20.980;2023-05-02T03:18:47;100189.34;;;11.52;43.86
17607;BME280;69222;52.242;20.980;2023-05-02T03:21:15;100173.13;;;11.41;44.00
17607;BME280;69222;52.242;20.980;2023-05-02T03:23:43;100192.00;;;11.46;44.45
17607;BME280;69222;52.242;20.980;2023-05-02T03:26:11;100181.72;;;11.43;44.13
17607;BME280;69222;52.242;20.980;2023-05-02T03:28:40;100181.75;;;11.42;44.40
17607;BME280;69222;52.242;20.980;2023-05-02T03:31:09;100174.09;;;11.35;44.27
17607;BME280;69222;52.242;20.980;2023-05-02T03:33:39;100193.75;;;11.44;44.60
17607;BME280;69222;52.242;20.980;2023-05-02T03:36:07;100185.22;;;11.39;44.79
17607;BME280;69222;52.242;20.980;2023-05-02T03:38:35;100174.16;;;11.29;44.63
17607;BME280;69222;52.242;20.980;2023-05-02T03:41:04;100187.75;;;11.45;44.35
17607;BME280;69222;52.242;20.980;2023-05-02T03:43:32;100176.59;;;11.42;44.49
17607;BME280;69222;52.242;20.980;2023-05-02T03:46:05;100187.63;;;11.51;44.58
17607;BME280;69222;52.242;20.980;2023-05-02T03:48:35;100185.91;;;11.52;44.82
17607;BME280;69222;52.242;20.980;2023-05-02T03:51:05;100185.91;;;11.52;44.58
17607;BME280;69222;52.242;20.980;2023-05-02T03:53:35;100190.19;;;11.54;44.89
17607;BME280;69222;52.242;20.980;2023-05-02T03:56:05;100189.25;;;11.60;45.22
17607;BME280;69222;52.242;20.980;2023-05-02T03:58:33;100180.78;;;11.50;44.99
17607;BME280;69222;52.242;20.980;2023-05-02T04:01:02;100196.13;;;11.59;45.15
17607;BME280;69222;52.242;20.980;2023-05-02T04:03:31;100180.81;;;11.47;44.65
17607;BME280;69222;52.242;20.980;2023-05-02T04:06:00;100196.09;;;11.63;44.43
17607;BME280;69222;52.242;20.980;2023-05-02T04:08:28;100190.06;;;11.64;44.43
17607;BME280;69222;52.242;20.980;2023-05-02T04:10:57;100199.56;;;11.61;44.74
17607;BME280;69222;52.242;20.980;2023-05-02T04:13:25;100191.00;;;11.58;45.07
17607;BME280;69222;52.242;20.980;2023-05-02T04:15:55;100193.47;;;11.67;45.06
17607;BME280;69222;52.242;20.980;2023-05-02T04:18:23;100185.66;;;11.70;44.85
17607;BME280;69222;52.242;20.980;2023-05-02T04:20:53;100194.22;;;11.75;44.52
17607;BME280;69222;52.242;20.980;2023-05-02T04:23:22;100192.34;;;11.85;44.18
17607;BME280;69222;52.242;20.980;2023-05-02T04:25:51;100195.63;;;11.96;44.57
17607;BME280;69222;52.242;20.980;2023-05-02T04:28:20;100188.66;;;12.03;44.25
17607;BME280;69222;52.242;20.980;2023-05-02T04:30:49;100184.34;;;12.05;44.16
17607;BME280;69222;52.242;20.980;2023-05-02T04:33:17;100172.41;;;11.98;44.07
17607;BME280;69222;52.242;20.980;2023-05-02T04:35:46;100192.97;;;12.02;44.33
17607;BME280;69222;52.242;20.980;2023-05-02T04:38:14;100192.94;;;12.05;44.37
17607;BME280;69222;52.242;20.980;2023-05-02T04:40:44;100187.63;;;12.15;44.35
17607;BME280;69222;52.242;20.980;2023-05-02T04:43:13;100186.72;;;12.17;44.37
17607;BME280;69222;52.242;20.980;2023-05-02T04:45:42;100198.66;;;12.24;44.02
17607;BME280;69222;52.242;20.980;2023-05-02T04:48:12;100198.63;;;12.27;44.33
17607;BME280;69222;52.242;20.980;2023-05-02T04:50:44;100178.06;;;12.20;43.61
17607;BME280;69222;52.242;20.980;2023-05-02T04:53:12;100191.63;;;12.32;44.20
17607;BME280;69222;52.242;20.980;2023-05-02T04:55:41;100188.19;;;12.33;43.77
17607;BME280;69222;52.242;20.980;2023-05-02T04:58:11;100182.09;;;12.36;43.76
17607;BME280;69222;52.242;20.980;2023-05-02T05:00:40;100193.97;;;12.48;43.59
17607;BME280;69222;52.242;20.980;2023-05-02T05:03:09;100194.72;;;12.56;43.59
17607;BME280;69222;52.242;20.980;2023-05-02T05:05:38;100167.25;;;12.47;43.75
17607;BME280;69222;52.242;20.980;2023-05-02T05:08:07;100188.97;;;12.87;43.47
17607;BME280;69222;52.242;20.980;2023-05-02T05:10:38;100187.63;;;13.11;43.04
17607;BME280;69222;52.242;20.980;2023-05-02T05:13:09;100177.41;;;13.49;42.12
17607;BME280;69222;52.242;20.980;2023-05-02T05:15:41;100190.97;;;13.99;41.10
17607;BME280;69222;52.242;20.980;2023-05-02T05:18:11;100162.56;;;14.65;39.84
17607;BME280;69222;52.242;20.980;2023-05-02T05:20:40;100174.34;;;15.70;38.17
17607;BME280;69222;52.242;20.980;2023-05-02T05:23:08;100175.94;;;16.80;36.17
17607;BME280;69222;52.242;20.980;2023-05-02T05:25:36;100168.34;;;17.92;34.47
17607;BME280;69222;52.242;20.980;2023-05-02T05:28:07;100159.19;;;19.05;32.22
17607;BME280;69222;52.242;20.980;2023-05-02T05:30:36;100155.69;;;19.82;30.51
17607;BME280;69222;52.242;20.980;2023-05-02T05:33:06;100157.13;;;20.24;29.29
17607;BME280;69222;52.242;20.980;2023-05-02T05:35:36;100150.84;;;20.63;28.78
17607;BME280;69222;52.242;20.980;2023-05-02T05:38:04;100132.25;;;21.01;28.22
17607;BME280;69222;52.242;20.980;2023-05-02T05:40:32;100154.81;;;21.84;27.26
17607;BME280;69222;52.242;20.980;2023-05-02T05:43:01;100160.00;;;22.76;26.47
17607;BME280;69222;52.242;20.980;2023-05-02T05:45:29;100155.81;;;23.72;25.01
17607;BME280;69222;52.242;20.980;2023-05-02T05:47:57;100156.66;;;24.52;24.07
17607;BME280;69222;52.242;20.980;2023-05-02T05:50:29;100148.09;;;25.38;23.02
17607;BME280;69222;52.242;20.980;2023-05-02T05:52:57;100146.66;;;26.06;21.83
17607;BME280;69222;52.242;20.980;2023-05-02T05:55:27;100141.75;;;26.01;22.08
17607;BME280;69222;52.242;20.980;2023-05-02T05:57:56;100145.19;;;24.91;22.94
17607;BME280;69222;52.242;20.980;2023-05-02T06:00:25;100149.59;;;24.78;23.00
17607;BME280;69222;52.242;20.980;2023-05-02T06:02:53;100144.53;;;25.26;22.95
17607;BME280;69222;52.242;20.980;2023-05-02T06:05:21;100141.81;;;25.99;22.40
17607;BME280;69222;52.242;20.980;2023-05-02T06:07:51;100147.47;;;26.88;21.49
17607;BME280;69222;52.242;20.980;2023-05-02T06:10:19;100154.84;;;27.29;20.66
17607;BME280;69222;52.242;20.980;2023-05-02T06:12:48;100150.38;;;26.38;21.53
17607;BME280;69222;52.242;20.980;2023-05-02T06:15:17;100145.13;;;25.42;22.61
17607;BME280;69222;52.242;20.980;2023-05-02T06:17:45;100141.78;;;25.64;22.73
17607;BME280;69222;52.242;20.980;2023-05-02T06:20:14;100150.06;;;26.08;22.59
17607;BME280;69222;52.242;20.980;2023-05-02T06:22:44;100153.84;;;25.19;23.16
17607;BME280;69222;52.242;20.980;2023-05-02T06:25:14;100153.91;;;23.74;24.72
17607;BME280;69222;52.242;20.980;2023-05-02T06:27:43;100163.00;;;22.39;27.22
17607;BME280;69222;52.242;20.980;2023-05-02T06:30:14;100158.38;;;21.51;28.43
17607;BME280;69222;52.242;20.980;2023-05-02T06:32:42;100159.91;;;21.39;29.17
17607;BME280;69222;52.242;20.980;2023-05-02T06:35:10;100168.78;;;21.68;29.10
17607;BME280;69222;52.242;20.980;2023-05-02T06:37:40;100163.09;;;22.38;28.42
17607;BME280;69222;52.242;20.980;2023-05-02T06:40:10;100169.00;;;23.84;26.86
17607;BME280;69222;52.242;20.980;2023-05-02T06:42:43;100167.59;;;25.35;25.03
17607;BME280;69222;52.242;20.980;2023-05-02T06:45:11;100153.06;;;26.49;23.89
17607;BME280;69222;52.242;20.980;2023-05-02T06:47:39;100145.03;;;27.52;22.37
17607;BME280;69222;52.242;20.980;2023-05-02T06:50:09;100162.56;;;28.08;21.47
17607;BME280;69222;52.242;20.980;2023-05-02T06:52:44;100161.13;;;28.36;21.02
17607;BME280;69222;52.242;20.980;2023-05-02T06:55:15;100134.78;;;28.23;20.99
17607;BME280;69222;52.242;20.980;2023-05-02T06:57:45;100160.31;;;28.24;21.33
17607;BME280;69222;52.242;20.980;2023-05-02T07:00:16;100157.53;;;28.05;21.42
17607;BME280;69222;52.242;20.980;2023-05-02T07:02:46;100158.53;;;28.25;21.44
17607;BME280;69222;52.242;20.980;2023-05-02T07:05:15;100164.94;;;28.64;21.28
17607;BME280;69222;52.242;20.980;2023-05-02T07:07:44;100172.81;;;28.75;21.02
17607;BME280;69222;52.242;20.980;2023-05-02T07:10:13;100160.28;;;28.98;20.95
17607;BME280;69222;52.242;20.980;2023-05-02T07:12:45;100146.25;;;29.17;20.69
17607;BME280;69222;52.242;20.980;2023-05-02T07:15:13;100159.28;;;29.49;20.56
17607;BME280;69222;52.242;20.980;2023-05-02T07:17:45;100149.16;;;29.64;20.58
17607;BME280;69222;52.242;20.980;2023-05-02T07:20:15;100164.00;;;29.96;19.85
17607;BME280;69222;52.242;20.980;2023-05-02T07:22:45;100159.53;;;29.77;20.25
17607;BME280;69222;52.242;20.980;2023-05-02T07:25:14;100155.34;;;29.24;19.91
17607;BME280;69222;52.242;20.980;2023-05-02T07:27:42;100156.06;;;28.75;20.57
17607;BME280;69222;52.242;20.980;2023-05-02T07:30:12;100162.63;;;28.50;20.33
17607;BME280;69222;52.242;20.980;2023-05-02T07:32:41;100163.47;;;27.97;21.18
17607;BME280;69222;52.242;20.980;2023-05-02T07:35:10;100166.28;;;27.73;21.40
17607;BME280;69222;52.242;20.980;2023-05-02T07:37:39;100167.06;;;27.53;21.55
17607;BME280;69222;52.242;20.980;2023-05-02T07:40:09;100158.63;;;26.69;22.57
17607;BME280;69222;52.242;20.980;2023-05-02T07:42:38;100164.53;;;26.26;22.94
17607;BME280;69222;52.242;20.980;2023-05-02T07:45:09;100170.78;;;26.01;23.17
17607;BME280;69222;52.242;20.980;2023-05-02T07:47:42;100169.44;;;25.59;23.64
17607;BME280;69222;52.242;20.980;2023-05-02T07:50:12;100167.19;;;25.28;24.11
17607;BME280;69222;52.242;20.980;2023-05-02T07:52:40;100167.09;;;25.30;24.32
17607;BME280;69222;52.242;20.980;2023-05-02T07:55:08;100159.00;;;25.08;24.65
17607;BME280;69222;52.242;20.980;2023-05-02T07:57:38;100169.75;;;25.04;24.81
17607;BME280;69222;52.242;20.980;2023-05-02T08:00:08;100170.38;;;25.21;24.84
17607;BME280;69222;52.242;20.980;2023-05-02T08:02:37;100171.34;;;25.20;24.85
17607;BME280;69222;52.242;20.980;2023-05-02T08:05:08;100180.44;;;25.52;25.05
17607;BME280;69222;52.242;20.980;2023-05-02T08:07:37;100175.72;;;26.06;23.55
17607;BME280;69222;52.242;20.980;2023-05-02T08:10:06;100186.50;;;26.02;23.50
17607;BME280;69222;52.242;20.980;2023-05-02T08:12:37;100174.28;;;25.65;24.18
17607;BME280;69222;52.242;20.980;2023-05-02T08:15:09;100189.00;;;25.43;24.77
17607;BME280;69222;52.242;20.980;2023-05-02T08:17:39;100188.09;;;24.93;25.74
17607;BME280;69222;52.242;20.980;2023-05-02T08:20:09;100180.47;;;24.63;26.14
17607;BME280;69222;52.242;20.980;2023-05-02T08:22:38;100192.75;;;24.90;26.31
17607;BME280;69222;52.242;20.980;2023-05-02T08:25:08;100179.03;;;25.23;26.25
17607;BME280;69222;52.242;20.980;2023-05-02T08:27:36;100179.47;;;25.04;26.39
17607;BME280;69222;52.242;20.980;2023-05-02T08:30:16;100164.69;;;24.50;27.07
17607;BME280;69222;52.242;20.980;2023-05-02T08:32:47;100186.94;;;24.32;27.56
17607;BME280;69222;52.242;20.980;2023-05-02T08:35:27;100210.81;;;23.89;28.22
17607;BME280;69222;52.242;20.980;2023-05-02T08:37:56;100211.81;;;23.45;28.91
17607;BME280;69222;52.242;20.980;2023-05-02T08:40:26;100189.09;;;23.01;29.83
17607;BME280;69222;52.242;20.980;2023-05-02T08:43:09;100203.88;;;22.74;30.79
17607;BME280;69222;52.242;20.980;2023-05-02T08:45:40;100214.44;;;22.58;31.15
17607;BME280;69222;52.242;20.980;2023-05-02T08:48:10;100216.53;;;22.37;31.34
17607;BME280;69222;52.242;20.980;2023-05-02T08:50:44;100194.66;;;22.06;31.95
17607;BME280;69222;52.242;20.980;2023-05-02T08:53:15;100204.53;;;22.01;32.28
17607;BME280;69222;52.242;20.980;2023-05-02T08:55:48;100220.13;;;22.04;32.16
17607;BME280;69222;52.242;20.980;2023-05-02T08:58:17;100197.09;;;21.93;32.35
17607;BME280;69222;52.242;20.980;2023-05-02T09:00:48;100215.31;;;21.97;32.81
17607;BME280;69222;52.242;20.980;2023-05-02T09:03:28;100202.03;;;21.84;32.84
17607;BME280;69222;52.242;20.980;2023-05-02T09:06:04;100205.06;;;21.60;33.69
17607;BME280;69222;52.242;20.980;2023-05-02T09:08:39;100215.03;;;21.54;33.45
17607;BME280;69222;52.242;20.980;2023-05-02T09:11:15;100223.63;;;21.73;33.74
17607;BME280;69222;52.242;20.980;2023-05-02T09:13:45;100220.97;;;21.89;33.30
17607;BME280;69222;52.242;20.980;2023-05-02T09:16:19;100205.88;;;22.08;33.21
17607;BME280;69222;52.242;20.980;2023-05-02T09:18:50;100186.59;;;22.25;33.04
17607;BME280;69222;52.242;20.980;2023-05-02T09:21:23;100219.22;;;22.51;32.20
17607;BME280;69222;52.242;20.980;2023-05-02T09:23:53;100224.59;;;22.34;32.82
17607;BME280;69222;52.242;20.980;2023-05-02T09:26:25;100222.00;;;22.02;32.86
17607;BME280;69222;52.242;20.980;2023-05-02T09:29:00;100225.72;;;21.66;33.55
17607;BME280;69222;52.242;20.980;2023-05-02T09:31:38;100224.25;;;21.45;34.18
17607;BME280;69222;52.242;20.980;2023-05-02T09:34:11;100242.03;;;21.22;34.49
17607;BME280;69222;52.242;20.980;2023-05-02T09:36:42;100243.13;;;21.01;35.33
17607;BME280;69222;52.242;20.980;2023-05-02T09:39:13;100244.75;;;20.86;35.75
17607;BME280;69222;52.242;20.980;2023-05-02T09:41:46;100242.69;;;20.75;36.19
17607;BME280;69222;52.242;20.980;2023-05-02T09:44:18;100254.00;;;20.76;36.50
17607;BME280;69222;52.242;20.980;2023-05-02T09:46:48;100235.28;;;20.84;36.32
17607;BME280;69222;52.242;20.980;2023-05-02T09:49:18;100257.47;;;20.94;36.25
17607;BME280;69222;52.242;20.980;2023-05-02T09:51:53;100246.31;;;21.41;36.04
17607;BME280;69222;52.242;20.980;2023-05-02T09:54:43;100245.09;;;22.27;34.49
17607;BME280;69222;52.242;20.980;2023-05-02T09:57:14;100255.59;;;22.43;33.85
17607;BME280;69222;52.242;20.980;2023-05-02T09:59:55;100252.72;;;22.16;34.38
17607;BME280;69222;52.242;20.980;2023-05-02T10:02:29;100268.69;;;21.80;34.98
17607;BME280;69222;52.242;20.980;2023-05-02T10:05:00;100260.59;;;21.35;35.86
17607;BME280;69222;52.242;20.980;2023-05-02T10:07:33;100269.66;;;21.28;36.00
17607;BME280;69222;52.242;20.980;2023-05-02T10:10:04;100230.28;;;20.96;36.37
17607;BME280;69222;52.242;20.980;2023-05-02T10:12:39;100259.63;;;21.03;36.57
17607;BME280;69222;52.242;20.980;2023-05-02T10:15:11;100263.50;;;20.96;36.92
17607;BME280;69222;52.242;20.980;2023-05-02T10:17:47;100268.13;;;20.73;37.17
17607;BME280;69222;52.242;20.980;2023-05-02T10:20:21;100265.88;;;20.47;38.21
17607;BME280;69222;52.242;20.980;2023-05-02T10:22:58;100291.16;;;20.48;39.35
17607;BME280;69222;52.242;20.980;2023-05-02T10:25:28;100289.22;;;21.05;38.85
17607;BME280;69222;52.242;20.980;2023-05-02T10:27:59;100275.94;;;21.43;37.29
17607;BME280;69222;52.242;20.980;2023-05-02T10:30:37;100289.63;;;21.48;37.92
17607;BME280;69222;52.242;20.980;2023-05-02T10:33:07;100290.00;;;21.07;39.02
17607;BME280;69222;52.242;20.980;2023-05-02T10:35:36;100276.66;;;20.60;40.07
17607;BME280;69222;52.242;20.980;2023-05-02T10:38:18;100311.19;;;20.49;41.02
17607;BME280;69222;52.242;20.980;2023-05-02T10:40:53;100314.53;;;20.34;41.20
17607;BME280;69222;52.242;20.980;2023-05-02T10:43:29;100317.75;;;20.21;41.90
17607;BME280;69222;52.242;20.980;2023-05-02T10:46:00;100318.59;;;20.03;41.97
17607;BME280;69222;52.242;20.980;2023-05-02T10:48:30;100308.59;;;19.73;42.19
17607;BME280;69222;52.242;20.980;2023-05-02T10:51:00;100338.72;;;19.63;43.02
17607;BME280;69222;52.242;20.980;2023-05-02T10:53:34;100342.47;;;19.36;43.82
17607;BME280;69222;52.242;20.980;2023-05-02T10:56:19;100349.47;;;19.15;44.08
17607;BME280;69222;52.242;20.980;2023-05-02T10:58:52;100333.19;;;18.88;44.60
17607;BME280;69222;52.242;20.980;2023-05-02T11:01:36;100342.13;;;18.60;45.03
17607;BME280;69222;52.242;20.980;2023-05-02T11:04:07;100352.34;;;18.43;45.77
17607;BME280;69222;52.242;20.980;2023-05-02T11:09:46;100373.03;;;18.02;46.74
17607;BME280;69222;52.242;20.980;2023-05-02T11:12:42;100384.16;;;17.83;48.81
17607;BME280;69222;52.242;20.980;2023-05-02T11:15:11;100395.13;;;17.67;50.25
17607;BME280;69222;52.242;20.980;2023-05-02T11:17:58;100406.94;;;17.52;52.17
17607;BME280;69222;52.242;20.980;2023-05-02T11:20:29;100398.72;;;17.37;52.60
17607;BME280;69222;52.242;20.980;2023-05-02T11:23:18;100393.47;;;17.14;53.99
17607;BME280;69222;52.242;20.980;2023-05-02T11:25:56;100410.03;;;17.11;55.33
17607;BME280;69222;52.242;20.980;2023-05-02T11:28:41;100437.03;;;17.09;55.88
17607;BME280;69222;52.242;20.980;2023-05-02T11:34:22;100420.19;;;16.63;56.85
17607;BME280;69222;52.242;20.980;2023-05-02T11:36:52;100447.97;;;16.62;58.11
17607;BME280;69222;52.242;20.980;2023-05-02T11:39:22;100444.38;;;16.66;59.25
17607;BME280;69222;52.242;20.980;2023-05-02T11:41:52;100453.25;;;16.89;58.71
17607;BME280;69222;52.242;20.980;2023-05-02T11:44:21;100438.03;;;17.05;57.88
17607;BME280;69222;52.242;20.980;2023-05-02T11:46:50;100417.31;;;17.00;57.26
17607;BME280;69222;52.242;20.980;2023-05-02T11:49:21;100427.13;;;17.20;56.72
17607;BME280;69222;52.242;20.980;2023-05-02T11:51:51;100420.59;;;17.33;55.53
17607;BME280;69222;52.242;20.980;2023-05-02T11:54:21;100459.44;;;17.66;54.19
17607;BME280;69222;52.242;20.980;2023-05-02T11:56:52;100453.47;;;17.62;53.47
17607;BME280;69222;52.242;20.980;2023-05-02T11:59:21;100452.34;;;17.45;53.73
17607;BME280;69222;52.242;20.980;2023-05-02T12:01:52;100448.19;;;17.39;52.63
17607;BME280;69222;52.242;20.980;2023-05-02T12:04:22;100476.00;;;17.38;53.18
17607;BME280;69222;52.242;20.980;2023-05-02T12:06:56;100469.28;;;17.31;53.69
17607;BME280;69222;52.242;20.980;2023-05-02T12:09:27;100450.81;;;17.12;53.80
17607;BME280;69222;52.242;20.980;2023-05-02T12:11:59;100461.56;;;17.28;53.78
17607;BME280;69222;52.242;20.980;2023-05-02T12:14:29;100463.22;;;17.57;53.92
17607;BME280;69222;52.242;20.980;2023-05-02T12:17:02;100469.06;;;17.91;52.85
17607;BME280;69222;52.242;20.980;2023-05-02T12:19:34;100464.56;;;18.19;51.59
17607;BME280;69222;52.242;20.980;2023-05-02T12:22:08;100463.00;;;18.37;49.81
17607;BME280;69222;52.242;20.980;2023-05-02T12:24:36;100467.06;;;18.46;49.95
17607;BME280;69222;52.242;20.980;2023-05-02T12:27:11;100450.00;;;18.59;49.80
17607;BME280;69222;52.242;20.980;2023-05-02T12:29:44;100452.75;;;18.79;49.36
17607;BME280;69222;52.242;20.980;2023-05-02T12:32:13;100431.47;;;18.89;48.56
17607;BME280;69222;52.242;20.980;2023-05-02T12:34:42;100419.13;;;18.94;48.41
17607;BME280;69222;52.242;20.980;2023-05-02T12:37:10;100468.47;;;19.22;47.05
17607;BME280;69222;52.242;20.980;2023-05-02T12:39:42;100471.22;;;19.19;46.94
17607;BME280;69222;52.242;20.980;2023-05-02T12:42:16;100472.25;;;19.15;46.67
17607;BME280;69222;52.242;20.980;2023-05-02T12:44:48;100478.44;;;19.12;46.55
17607;BME280;69222;52.242;20.980;2023-05-02T12:47:21;100469.69;;;19.13;46.54
17607;BME280;69222;52.242;20.980;2023-05-02T12:49:51;100478.34;;;19.15;47.09
17607;BME280;69222;52.242;20.980;2023-05-02T12:52:21;100463.13;;;19.03;45.48
17607;BME280;69222;52.242;20.980;2023-05-02T12:55:14;100451.91;;;18.79;45.24
17607;BME280;69222;52.242;20.980;2023-05-02T12:57:46;100470.09;;;18.80;44.86
17607;BME280;69222;52.242;20.980;2023-05-02T13:00:16;100456.25;;;18.55;43.45
17607;BME280;69222;52.242;20.980;2023-05-02T13:02:48;100472.00;;;18.53;42.92
17607;BME280;69222;52.242;20.980;2023-05-02T13:05:17;100484.50;;;18.44;42.43
17607;BME280;69222;52.242;20.980;2023-05-02T13:07:48;100483.28;;;18.30;42.07
17607;BME280;69222;52.242;20.980;2023-05-02T13:10:17;100482.22;;;18.11;43.23
17607;BME280;69222;52.242;20.980;2023-05-02T13:12:52;100491.06;;;18.07;43.12